sensor_id;sensor_type;location;lat;lon;timestamp;temperature;humidity
30069;DHT22;16894;49.456;10.644;2023-02-26T00:01:02;-0.90;99.90
30069;DHT22;16894;49.456;10.644;2023-02-26T00:03:28;-0.90;99.90
30069;DHT22;16894;49.456;10.644;2023-02-26T00:05:57;-1.00;99.90
30069;DHT22;16894;49.456;10.644;2023-02-26T00:08:23;-1.00;99.90
30069;DHT22;16894;49.456;10.644;2023-02-26T00:10:48;-1.00;99.90
30069;DHT22;16894;49.456;10.644;2023-02-26T00:13:14;-1.00;99.90
30069;DHT22;16894;49.456;10.644;2023-02-26T00:15:40;-1.10;99.90
30069;DHT22;16894;49.456;10.644;2023-02-26T00:18:10;-1.10;99.90
30069;DHT22;16894;49.456;10.644;2023-02-26T00:20:37;-1.20;99.90
30069;DHT22;16894;49.456;10.644;2023-02-26T00:23:03;-1.20;99.90
30069;DHT22;16894;49.456;10.644;2023-02-26T00:25:29;-1.20;99.90
30069;DHT22;16894;49.456;10.644;2023-02-26T00:27:54;-1.20;99.90
30069;DHT22;16894;49.456;10.644;2023-02-26T00:30:20;-1.20;99.90
30069;DHT22;16894;49.456;10.644;2023-02-26T00:32:46;-1.20;99.90
30069;DHT22;16894;49.456;10.644;2023-02-26T00:35:12;-1.20;99.90
30069;DHT22;16894;49.456;10.644;2023-02-26T00:40:55;-1.30;99.90
30069;DHT22;16894;49.456;10.644;2023-02-26T00:43:02;-1.20;99.90
30069;DHT22;16894;49.456;10.644;2023-02-26T00:45:28;-1.10;99.90
30069;DHT22;16894;49.456;10.644;2023-02-26T00:47:55;-1.00;99.90
30069;DHT22;16894;49.456;10.644;2023-02-26T00:50:24;-1.00;99.90
30069;DHT22;16894;49.456;10.644;2023-02-26T00:55:15;-0.80;99.90
30069;DHT22;16894;49.456;10.644;2023-02-26T00:57:41;-0.80;99.90
30069;DHT22;16894;49.456;10.644;2023-02-26T01:00:07;-0.70;99.90
30069;DHT22;16894;49.456;10.644;2023-02-26T01:02:35;-0.60;99.90
30069;DHT22;16894;49.456;10.644;2023-02-26T01:05:01;-0.60;99.90
30069;DHT22;16894;49.456;10.644;2023-02-26T01:07:28;-0.60;99.90
30069;DHT22;16894;49.456;10.644;2023-02-26T01:09:54;-0.70;99.90
30069;DHT22;16894;49.456;10.644;2023-02-26T01:12:19;-0.70;99.90
30069;DHT22;16894;49.456;10.644;2023-02-26T01:14:45;-0.90;99.90
30069;DHT22;16894;49.456;10.644;2023-02-26T01:22:14;-1.00;99.90
30069;DHT22;16894;49.456;10.644;2023-02-26T01:24:42;-0.90;99.90
30069;DHT22;16894;49.456;10.644;2023-02-26T01:27:07;-0.90;99.90
30069;DHT22;16894;49.456;10.644;2023-02-26T01:29:33;-0.80;99.90
30069;DHT22;16894;49.456;10.644;2023-02-26T01:32:11;-0.80;99.90
30069;DHT22;16894;49.456;10.644;2023-02-26T01:34:41;-0.80;99.90
30069;DHT22;16894;49.456;10.644;2023-02-26T01:42:24;-0.80;99.90
30069;DHT22;16894;49.456;10.644;2023-02-26T01:44:54;-0.90;99.90
30069;DHT22;16894;49.456;10.644;2023-02-26T01:47:22;-1.00;99.90
30069;DHT22;16894;49.456;10.644;2023-02-26T01:49:50;-1.00;99.90
30069;DHT22;16894;49.456;10.644;2023-02-26T01:54:56;-1.10;99.90
30069;DHT22;16894;49.456;10.644;2023-02-26T01:57:22;-1.20;99.90
30069;DHT22;16894;49.456;10.644;2023-02-26T01:59:48;-1.30;99.90
30069;DHT22;16894;49.456;10.644;2023-02-26T02:02:16;-1.40;99.90
30069;DHT22;16894;49.456;10.644;2023-02-26T02:04:42;-1.50;99.90
30069;DHT22;16894;49.456;10.644;2023-02-26T02:07:09;-1.60;99.90
30069;DHT22;16894;49.456;10.644;2023-02-26T02:09:35;-1.60;99.90
30069;DHT22;16894;49.456;10.644;2023-02-26T02:14:52;-1.60;99.90
30069;DHT22;16894;49.456;10.644;2023-02-26T02:17:20;-1.70;99.90
30069;DHT22;16894;49.456;10.644;2023-02-26T02:19:53;-1.70;99.90
30069;DHT22;16894;49.456;10.644;2023-02-26T02:22:26;-1.80;99.90
30069;DHT22;16894;49.456;10.644;2023-02-26T02:32:49;-1.80;99.90
30069;DHT22;16894;49.456;10.644;2023-02-26T02:35:23;-1.80;99.90
30069;DHT22;16894;49.456;10.644;2023-02-26T02:38:13;-1.90;99.90
30069;DHT22;16894;49.456;10.644;2023-02-26T02:40:42;-2.00;99.90
30069;DHT22;16894;49.456;10.644;2023-02-26T02:43:10;-2.10;99.90
30069;DHT22;16894;49.456;10.644;2023-02-26T02:48:25;-2.10;99.90
30069;DHT22;16894;49.456;10.644;2023-02-26T02:50:53;-2.10;99.90
30069;DHT22;16894;49.456;10.644;2023-02-26T02:53:25;-2.10;99.90
30069;DHT22;16894;49.456;10.644;2023-02-26T02:55:57;-2.10;99.90
30069;DHT22;16894;49.456;10.644;2023-02-26T02:58:25;-2.10;99.90
30069;DHT22;16894;49.456;10.644;2023-02-26T03:00:53;-2.20;99.90
30069;DHT22;16894;49.456;10.644;2023-02-26T03:03:56;-2.20;99.90
30069;DHT22;16894;49.456;10.644;2023-02-26T03:06:12;-2.20;99.90
30069;DHT22;16894;49.456;10.644;2023-02-26T03:08:39;-2.30;99.90
30069;DHT22;16894;49.456;10.644;2023-02-26T03:11:08;-2.30;99.90
30069;DHT22;16894;49.456;10.644;2023-02-26T03:13:33;-2.40;99.90
30069;DHT22;16894;49.456;10.644;2023-02-26T03:21:03;-2.40;99.90
30069;DHT22;16894;49.456;10.644;2023-02-26T03:23:32;-2.40;99.90
30069;DHT22;16894;49.456;10.644;2023-02-26T03:26:06;-2.40;99.90
30069;DHT22;16894;49.456;10.644;2023-02-26T03:28:38;-2.40;99.90
30069;DHT22;16894;49.456;10.644;2023-02-26T03:31:19;-2.50;99.90
30069;DHT22;16894;49.456;10.644;2023-02-26T03:36:19;-2.70;99.90
30069;DHT22;16894;49.456;10.644;2023-02-26T03:38:54;-2.70;99.90
30069;DHT22;16894;49.456;10.644;2023-02-26T03:41:26;-2.60;99.90
30069;DHT22;16894;49.456;10.644;2023-02-26T03:44:07;-2.50;99.90
30069;DHT22;16894;49.456;10.644;2023-02-26T03:46:38;-2.50;99.90
30069;DHT22;16894;49.456;10.644;2023-02-26T03:49:06;-2.60;99.90
30069;DHT22;16894;49.456;10.644;2023-02-26T03:51:34;-2.70;99.90
30069;DHT22;16894;49.456;10.644;2023-02-26T03:54:03;-2.80;99.90
30069;DHT22;16894;49.456;10.644;2023-02-26T03:56:32;-2.80;99.90
30069;DHT22;16894;49.456;10.644;2023-02-26T03:58:59;-2.70;99.90
30069;DHT22;16894;49.456;10.644;2023-02-26T04:01:27;-2.70;99.90
30069;DHT22;16894;49.456;10.644;2023-02-26T04:03:59;-2.70;99.90
30069;DHT22;16894;49.456;10.644;2023-02-26T04:06:26;-2.70;99.90
30069;DHT22;16894;49.456;10.644;2023-02-26T04:08:52;-2.80;99.90
30069;DHT22;16894;49.456;10.644;2023-02-26T04:11:19;-2.80;99.90
30069;DHT22;16894;49.456;10.644;2023-02-26T04:13:44;-2.90;99.90
30069;DHT22;16894;49.456;10.644;2023-02-26T04:16:10;-2.90;99.90
30069;DHT22;16894;49.456;10.644;2023-02-26T04:18:36;-2.90;99.90
30069;DHT22;16894;49.456;10.644;2023-02-26T04:21:02;-3.00;99.90
30069;DHT22;16894;49.456;10.644;2023-02-26T04:23:27;-3.00;99.90
30069;DHT22;16894;49.456;10.644;2023-02-26T04:25:53;-3.00;99.90
30069;DHT22;16894;49.456;10.644;2023-02-26T04:28:18;-3.10;99.90
30069;DHT22;16894;49.456;10.644;2023-02-26T04:30:44;-3.10;99.90
30069;DHT22;16894;49.456;10.644;2023-02-26T04:33:09;-3.00;99.90
30069;DHT22;16894;49.456;10.644;2023-02-26T04:35:35;-2.90;99.90
30069;DHT22;16894;49.456;10.644;2023-02-26T04:38:00;-2.90;99.90
30069;DHT22;16894;49.456;10.644;2023-02-26T04:40:26;-2.90;99.90
30069;DHT22;16894;49.456;10.644;2023-02-26T04:42:51;-2.70;99.90
30069;DHT22;16894;49.456;10.644;2023-02-26T04:45:17;-2.70;99.90
30069;DHT22;16894;49.456;10.644;2023-02-26T04:47:43;-2.60;99.90
30069;DHT22;16894;49.456;10.644;2023-02-26T04:50:08;-2.50;99.90
30069;DHT22;16894;49.456;10.644;2023-02-26T04:52:34;-2.50;99.90
30069;DHT22;16894;49.456;10.644;2023-02-26T04:54:59;-2.60;99.90
30069;DHT22;16894;49.456;10.644;2023-02-26T04:57:25;-2.60;99.90
30069;DHT22;16894;49.456;10.644;2023-02-26T04:59:51;-2.50;99.90
30069;DHT22;16894;49.456;10.644;2023-02-26T05:02:16;-2.50;99.90
30069;DHT22;16894;49.456;10.644;2023-02-26T05:04:42;-2.40;99.90
30069;DHT22;16894;49.456;10.644;2023-02-26T05:07:07;-2.30;99.90
30069;DHT22;16894;49.456;10.644;2023-02-26T05:09:33;-2.30;99.90
30069;DHT22;16894;49.456;10.644;2023-02-26T05:11:58;-2.30;99.90
30069;DHT22;16894;49.456;10.644;2023-02-26T05:14:24;-2.30;99.90
30069;DHT22;16894;49.456;10.644;2023-02-26T05:16:49;-2.20;99.90
30069;DHT22;16894;49.456;10.644;2023-02-26T05:19:15;-2.20;99.90
30069;DHT22;16894;49.456;10.644;2023-02-26T05:21:40;-2.10;99.90
30069;DHT22;16894;49.456;10.644;2023-02-26T05:24:06;-2.10;99.90
30069;DHT22;16894;49.456;10.644;2023-02-26T05:26:31;-2.00;99.90
30069;DHT22;16894;49.456;10.644;2023-02-26T05:28:57;-2.00;99.90
30069;DHT22;16894;49.456;10.644;2023-02-26T05:31:22;-2.00;99.90
30069;DHT22;16894;49.456;10.644;2023-02-26T05:33:48;-1.90;99.90
30069;DHT22;16894;49.456;10.644;2023-02-26T05:36:14;-1.80;99.90
30069;DHT22;16894;49.456;10.644;2023-02-26T05:38:39;-1.80;99.90
30069;DHT22;16894;49.456;10.644;2023-02-26T05:41:05;-1.80;99.90
30069;DHT22;16894;49.456;10.644;2023-02-26T05:43:30;-1.80;99.90
30069;DHT22;16894;49.456;10.644;2023-02-26T05:45:56;-1.70;99.90
30069;DHT22;16894;49.456;10.644;2023-02-26T05:48:22;-1.70;99.90
30069;DHT22;16894;49.456;10.644;2023-02-26T05:50:48;-1.60;99.90
30069;DHT22;16894;49.456;10.644;2023-02-26T05:53:13;-1.60;99.90
30069;DHT22;16894;49.456;10.644;2023-02-26T05:55:39;-1.60;99.90
30069;DHT22;16894;49.456;10.644;2023-02-26T05:58:05;-1.60;99.90
30069;DHT22;16894;49.456;10.644;2023-02-26T06:00:30;-1.60;99.90
30069;DHT22;16894;49.456;10.644;2023-02-26T06:02:56;-1.60;99.90
30069;DHT22;16894;49.456;10.644;2023-02-26T06:05:22;-1.50;99.90
30069;DHT22;16894;49.456;10.644;2023-02-26T06:07:47;-1.50;99.90
30069;DHT22;16894;49.456;10.644;2023-02-26T06:10:13;-1.50;99.90
30069;DHT22;16894;49.456;10.644;2023-02-26T06:12:39;-1.50;99.90
30069;DHT22;16894;49.456;10.644;2023-02-26T06:15:05;-1.40;99.90
30069;DHT22;16894;49.456;10.644;2023-02-26T06:17:32;-1.40;99.90
30069;DHT22;16894;49.456;10.644;2023-02-26T06:19:58;-1.40;99.90
30069;DHT22;16894;49.456;10.644;2023-02-26T06:22:23;-1.40;99.90
30069;DHT22;16894;49.456;10.644;2023-02-26T06:24:49;-1.40;99.90
30069;DHT22;16894;49.456;10.644;2023-02-26T06:27:19;-1.40;99.90
30069;DHT22;16894;49.456;10.644;2023-02-26T06:29:44;-1.30;99.90
30069;DHT22;16894;49.456;10.644;2023-02-26T06:32:10;-1.30;99.90
30069;DHT22;16894;49.456;10.644;2023-02-26T06:34:35;-1.30;99.90
30069;DHT22;16894;49.456;10.644;2023-02-26T06:37:01;-1.20;99.90
30069;DHT22;16894;49.456;10.644;2023-02-26T06:39:26;-1.20;99.90
30069;DHT22;16894;49.456;10.644;2023-02-26T06:41:52;-1.20;99.90
30069;DHT22;16894;49.456;10.644;2023-02-26T06:44:18;-1.10;99.90
30069;DHT22;16894;49.456;10.644;2023-02-26T06:46:43;-1.20;99.90
30069;DHT22;16894;49.456;10.644;2023-02-26T06:49:09;-1.10;99.90
30069;DHT22;16894;49.456;10.644;2023-02-26T06:51:34;-1.10;99.90
30069;DHT22;16894;49.456;10.644;2023-02-26T06:54:00;-1.10;99.90
30069;DHT22;16894;49.456;10.644;2023-02-26T06:56:26;-1.00;99.90
30069;DHT22;16894;49.456;10.644;2023-02-26T06:58:51;-1.00;99.90
30069;DHT22;16894;49.456;10.644;2023-02-26T07:01:17;-0.90;99.90
30069;DHT22;16894;49.456;10.644;2023-02-26T07:03:43;-1.00;99.90
30069;DHT22;16894;49.456;10.644;2023-02-26T07:06:09;-1.00;99.90
30069;DHT22;16894;49.456;10.644;2023-02-26T07:08:35;-1.00;99.90
30069;DHT22;16894;49.456;10.644;2023-02-26T07:11:00;-1.00;99.90
30069;DHT22;16894;49.456;10.644;2023-02-26T07:13:26;-0.90;99.90
30069;DHT22;16894;49.456;10.644;2023-02-26T07:15:51;-1.00;99.90
30069;DHT22;16894;49.456;10.644;2023-02-26T07:18:17;-0.80;99.90
30069;DHT22;16894;49.456;10.644;2023-02-26T07:20:43;-0.90;99.90
30069;DHT22;16894;49.456;10.644;2023-02-26T07:23:09;-0.90;99.90
30069;DHT22;16894;49.456;10.644;2023-02-26T07:25:35;-0.90;99.90
30069;DHT22;16894;49.456;10.644;2023-02-26T07:28:01;-0.80;99.90
30069;DHT22;16894;49.456;10.644;2023-02-26T07:30:27;-0.80;99.90
30069;DHT22;16894;49.456;10.644;2023-02-26T07:32:53;-0.70;99.90
30069;DHT22;16894;49.456;10.644;2023-02-26T07:35:18;-0.70;99.90
30069;DHT22;16894;49.456;10.644;2023-02-26T07:37:44;-0.70;99.90
30069;DHT22;16894;49.456;10.644;2023-02-26T07:40:09;-0.70;99.90
30069;DHT22;16894;49.456;10.644;2023-02-26T07:42:35;-0.60;99.90
30069;DHT22;16894;49.456;10.644;2023-02-26T07:45:01;-0.60;99.90
30069;DHT22;16894;49.456;10.644;2023-02-26T07:47:28;-0.50;99.90
30069;DHT22;16894;49.456;10.644;2023-02-26T07:49:55;-0.50;99.90
30069;DHT22;16894;49.456;10.644;2023-02-26T07:52:21;-0.30;99.90
30069;DHT22;16894;49.456;10.644;2023-02-26T07:54:46;-0.20;99.90
30069;DHT22;16894;49.456;10.644;2023-02-26T07:57:12;-0.10;99.90
30069;DHT22;16894;49.456;10.644;2023-02-26T07:59:38;0.00;99.90
30069;DHT22;16894;49.456;10.644;2023-02-26T08:02:04;0.10;99.90
30069;DHT22;16894;49.456;10.644;2023-02-26T08:04:29;0.00;99.90
30069;DHT22;16894;49.456;10.644;2023-02-26T08:06:58;0.00;99.90
30069;DHT22;16894;49.456;10.644;2023-02-26T08:09:23;-0.10;99.90
30069;DHT22;16894;49.456;10.644;2023-02-26T08:11:51;0.00;99.90
30069;DHT22;16894;49.456;10.644;2023-02-26T08:14:16;0.00;99.90
30069;DHT22;16894;49.456;10.644;2023-02-26T08:16:42;0.20;99.90
30069;DHT22;16894;49.456;10.644;2023-02-26T08:19:07;0.20;99.90
30069;DHT22;16894;49.456;10.644;2023-02-26T08:21:33;0.20;99.90
30069;DHT22;16894;49.456;10.644;2023-02-26T08:23:58;0.30;99.90
30069;DHT22;16894;49.456;10.644;2023-02-26T08:26:24;0.20;99.90
30069;DHT22;16894;49.456;10.644;2023-02-26T08:28:49;0.10;99.90
30069;DHT22;16894;49.456;10.644;2023-02-26T08:31:15;0.10;99.90
30069;DHT22;16894;49.456;10.644;2023-02-26T08:33:41;0.00;99.90
30069;DHT22;16894;49.456;10.644;2023-02-26T08:36:07;0.10;99.90
30069;DHT22;16894;49.456;10.644;2023-02-26T08:38:33;0.20;99.90
30069;DHT22;16894;49.456;10.644;2023-02-26T08:40:58;0.20;99.90
30069;DHT22;16894;49.456;10.644;2023-02-26T08:43:24;0.20;99.90
30069;DHT22;16894;49.456;10.644;2023-02-26T08:45:53;0.30;99.90
30069;DHT22;16894;49.456;10.644;2023-02-26T08:48:19;0.40;99.90
30069;DHT22;16894;49.456;10.644;2023-02-26T08:50:45;0.40;99.90
30069;DHT22;16894;49.456;10.644;2023-02-26T08:53:10;0.40;99.90
30069;DHT22;16894;49.456;10.644;2023-02-26T08:55:36;0.50;99.90
30069;DHT22;16894;49.456;10.644;2023-02-26T08:58:02;0.50;99.90
30069;DHT22;16894;49.456;10.644;2023-02-26T09:00:27;0.30;99.90
30069;DHT22;16894;49.456;10.644;2023-02-26T09:02:53;0.40;99.90
30069;DHT22;16894;49.456;10.644;2023-02-26T09:05:18;0.50;99.90
30069;DHT22;16894;49.456;10.644;2023-02-26T09:07:44;0.40;99.90
30069;DHT22;16894;49.456;10.644;2023-02-26T09:10:10;0.50;99.90
30069;DHT22;16894;49.456;10.644;2023-02-26T09:12:36;0.70;99.90
30069;DHT22;16894;49.456;10.644;2023-02-26T09:15:03;0.70;99.90
30069;DHT22;16894;49.456;10.644;2023-02-26T09:17:29;0.80;99.90
30069;DHT22;16894;49.456;10.644;2023-02-26T09:19:54;0.90;99.90
30069;DHT22;16894;49.456;10.644;2023-02-26T09:22:20;1.20;99.90
30069;DHT22;16894;49.456;10.644;2023-02-26T09:24:45;1.20;99.90
30069;DHT22;16894;49.456;10.644;2023-02-26T09:27:11;1.30;99.90
30069;DHT22;16894;49.456;10.644;2023-02-26T09:29:36;1.20;99.90
30069;DHT22;16894;49.456;10.644;2023-02-26T09:32:02;1.40;99.90
30069;DHT22;16894;49.456;10.644;2023-02-26T09:34:36;1.40;99.90
30069;DHT22;16894;49.456;10.644;2023-02-26T09:37:02;1.30;99.90
30069;DHT22;16894;49.456;10.644;2023-02-26T09:39:28;1.30;99.90
30069;DHT22;16894;49.456;10.644;2023-02-26T09:41:54;1.40;99.90
30069;DHT22;16894;49.456;10.644;2023-02-26T09:44:31;1.30;99.90
30069;DHT22;16894;49.456;10.644;2023-02-26T09:52:21;1.40;99.90
30069;DHT22;16894;49.456;10.644;2023-02-26T09:54:51;1.30;99.90
30069;DHT22;16894;49.456;10.644;2023-02-26T09:57:20;1.30;99.90
30069;DHT22;16894;49.456;10.644;2023-02-26T09:59:49;1.40;99.90
30069;DHT22;16894;49.456;10.644;2023-02-26T10:04:55;1.50;99.90
30069;DHT22;16894;49.456;10.644;2023-02-26T10:07:30;1.40;99.90
30069;DHT22;16894;49.456;10.644;2023-02-26T10:12:29;1.50;99.90
30069;DHT22;16894;49.456;10.644;2023-02-26T10:17:25;1.70;99.90
30069;DHT22;16894;49.456;10.644;2023-02-26T10:19:55;1.60;99.90
30069;DHT22;16894;49.456;10.644;2023-02-26T10:22:27;1.70;99.90
30069;DHT22;16894;49.456;10.644;2023-02-26T10:25:00;1.90;99.90
30069;DHT22;16894;49.456;10.644;2023-02-26T10:27:47;2.20;99.90
30069;DHT22;16894;49.456;10.644;2023-02-26T10:33:13;2.10;99.90
30069;DHT22;16894;49.456;10.644;2023-02-26T10:35:44;1.80;99.90
30069;DHT22;16894;49.456;10.644;2023-02-26T10:38:12;1.60;99.90
30069;DHT22;16894;49.456;10.644;2023-02-26T10:40:49;1.50;99.90
30069;DHT22;16894;49.456;10.644;2023-02-26T10:43:50;1.50;99.90
30069;DHT22;16894;49.456;10.644;2023-02-26T10:48:54;1.50;99.90
30069;DHT22;16894;49.456;10.644;2023-02-26T10:51:30;1.50;99.90
30069;DHT22;16894;49.456;10.644;2023-02-26T10:53:58;1.50;99.90
30069;DHT22;16894;49.456;10.644;2023-02-26T10:56:25;1.60;99.90
30069;DHT22;16894;49.456;10.644;2023-02-26T10:58:51;1.70;99.90
30069;DHT22;16894;49.456;10.644;2023-02-26T11:01:20;1.60;99.90
30069;DHT22;16894;49.456;10.644;2023-02-26T11:03:47;1.70;99.90
30069;DHT22;16894;49.456;10.644;2023-02-26T11:06:16;1.80;99.90
30069;DHT22;16894;49.456;10.644;2023-02-26T11:08:44;1.90;99.90
30069;DHT22;16894;49.456;10.644;2023-02-26T11:11:10;1.90;99.90
30069;DHT22;16894;49.456;10.644;2023-02-26T11:13:55;1.70;99.90
30069;DHT22;16894;49.456;10.644;2023-02-26T11:16:21;1.50;99.90
30069;DHT22;16894;49.456;10.644;2023-02-26T11:18:47;1.60;99.90
30069;DHT22;16894;49.456;10.644;2023-02-26T11:21:17;1.50;99.90
30069;DHT22;16894;49.456;10.644;2023-02-26T11:23:43;1.50;99.90
30069;DHT22;16894;49.456;10.644;2023-02-26T11:26:15;1.50;99.90
30069;DHT22;16894;49.456;10.644;2023-02-26T11:31:08;1.50;99.90
30069;DHT22;16894;49.456;10.644;2023-02-26T11:33:38;1.60;99.90
30069;DHT22;16894;49.456;10.644;2023-02-26T11:36:07;1.90;99.90
30069;DHT22;16894;49.456;10.644;2023-02-26T11:38:33;2.20;99.90
30069;DHT22;16894;49.456;10.644;2023-02-26T11:40:59;2.60;99.90
30069;DHT22;16894;49.456;10.644;2023-02-26T11:43:26;2.90;99.90
30069;DHT22;16894;49.456;10.644;2023-02-26T11:45:58;2.90;99.90
30069;DHT22;16894;49.456;10.644;2023-02-26T11:48:27;2.90;99.90
30069;DHT22;16894;49.456;10.644;2023-02-26T11:50:57;2.90;99.90
30069;DHT22;16894;49.456;10.644;2023-02-26T11:55:57;2.80;99.90
30069;DHT22;16894;49.456;10.644;2023-02-26T11:58:23;3.10;99.90
30069;DHT22;16894;49.456;10.644;2023-02-26T12:00:52;3.10;99.90
30069;DHT22;16894;49.456;10.644;2023-02-26T12:03:19;3.10;99.90
30069;DHT22;16894;49.456;10.644;2023-02-26T12:05:46;2.70;99.90
30069;DHT22;16894;49.456;10.644;2023-02-26T12:08:15;2.60;99.90
30069;DHT22;16894;49.456;10.644;2023-02-26T12:10:42;2.60;99.90
30069;DHT22;16894;49.456;10.644;2023-02-26T12:18:42;3.10;99.30
30069;DHT22;16894;49.456;10.644;2023-02-26T12:23:58;3.20;98.60
30069;DHT22;16894;49.456;10.644;2023-02-26T12:26:30;3.40;98.20
30069;DHT22;16894;49.456;10.644;2023-02-26T12:29:11;3.50;98.70
30069;DHT22;16894;49.456;10.644;2023-02-26T12:31:43;3.40;97.20
30069;DHT22;16894;49.456;10.644;2023-02-26T12:37:00;3.50;97.60
30069;DHT22;16894;49.456;10.644;2023-02-26T12:57:34;2.60;99.20
30069;DHT22;16894;49.456;10.644;2023-02-26T13:05:29;4.20;97.20
30069;DHT22;16894;49.456;10.644;2023-02-26T13:08:04;5.80;94.30
30069;DHT22;16894;49.456;10.644;2023-02-26T13:10:56;6.10;93.40
30069;DHT22;16894;49.456;10.644;2023-02-26T13:13:24;5.50;92.80
30069;DHT22;16894;49.456;10.644;2023-02-26T13:19:30;4.30;93.90
30069;DHT22;16894;49.456;10.644;2023-02-26T13:21:26;4.80;92.80
30069;DHT22;16894;49.456;10.644;2023-02-26T13:23:54;4.40;91.90
30069;DHT22;16894;49.456;10.644;2023-02-26T13:26:21;4.80;92.20
30069;DHT22;16894;49.456;10.644;2023-02-26T13:28:55;4.70;91.20
30069;DHT22;16894;49.456;10.644;2023-02-26T13:31:30;5.20;92.50
30069;DHT22;16894;49.456;10.644;2023-02-26T13:33:57;5.80;91.20
30069;DHT22;16894;49.456;10.644;2023-02-26T13:36:24;4.60;90.90
30069;DHT22;16894;49.456;10.644;2023-02-26T13:39:02;4.50;92.80
30069;DHT22;16894;49.456;10.644;2023-02-26T13:41:43;4.90;91.80
30069;DHT22;16894;49.456;10.644;2023-02-26T13:44:22;5.60;91.10
30069;DHT22;16894;49.456;10.644;2023-02-26T13:52:21;4.60;92.60
30069;DHT22;16894;49.456;10.644;2023-02-26T13:54:47;5.00;92.70
30069;DHT22;16894;49.456;10.644;2023-02-26T13:59:51;5.80;90.80
30069;DHT22;16894;49.456;10.644;2023-02-26T14:04:53;4.50;91.90
30069;DHT22;16894;49.456;10.644;2023-02-26T14:08:07;5.70;90.90
30069;DHT22;16894;49.456;10.644;2023-02-26T14:10:43;6.20;90.30
30069;DHT22;16894;49.456;10.644;2023-02-26T14:13:12;5.40;91.20
30069;DHT22;16894;49.456;10.644;2023-02-26T14:15:47;5.10;89.40
30069;DHT22;16894;49.456;10.644;2023-02-26T14:18:24;4.80;88.90
30069;DHT22;16894;49.456;10.644;2023-02-26T14:20:51;5.40;89.20
30069;DHT22;16894;49.456;10.644;2023-02-26T14:23:49;5.10;89.00
30069;DHT22;16894;49.456;10.644;2023-02-26T14:26:10;5.60;86.30
30069;DHT22;16894;49.456;10.644;2023-02-26T14:28:42;6.10;83.80
30069;DHT22;16894;49.456;10.644;2023-02-26T14:31:12;5.20;86.60
30069;DHT22;16894;49.456;10.644;2023-02-26T14:33:41;4.40;88.40
30069;DHT22;16894;49.456;10.644;2023-02-26T14:36:13;3.80;90.40
30069;DHT22;16894;49.456;10.644;2023-02-26T14:38:39;3.60;90.90
30069;DHT22;16894;49.456;10.644;2023-02-26T14:43:42;3.10;92.80
30069;DHT22;16894;49.456;10.644;2023-02-26T14:46:08;2.90;92.40
30069;DHT22;16894;49.456;10.644;2023-02-26T14:48:35;2.70;92.30
30069;DHT22;16894;49.456;10.644;2023-02-26T14:53:40;2.70;93.00
30069;DHT22;16894;49.456;10.644;2023-02-26T15:01:25;2.20;93.80
30069;DHT22;16894;49.456;10.644;2023-02-26T15:04:06;2.10;94.50
30069;DHT22;16894;49.456;10.644;2023-02-26T15:09:07;2.20;93.20
30069;DHT22;16894;49.456;10.644;2023-02-26T15:22:08;2.10;93.80
30069;DHT22;16894;49.456;10.644;2023-02-26T15:24:38;2.00;94.50
30069;DHT22;16894;49.456;10.644;2023-02-26T15:27:04;1.90;94.70
30069;DHT22;16894;49.456;10.644;2023-02-26T15:29:32;1.90;94.00
30069;DHT22;16894;49.456;10.644;2023-02-26T15:32:05;1.80;94.20
30069;DHT22;16894;49.456;10.644;2023-02-26T15:34:30;1.80;94.00
30069;DHT22;16894;49.456;10.644;2023-02-26T15:36:58;1.70;94.20
30069;DHT22;16894;49.456;10.644;2023-02-26T15:39:24;1.80;94.20
30069;DHT22;16894;49.456;10.644;2023-02-26T15:41:50;2.10;96.40
30069;DHT22;16894;49.456;10.644;2023-02-26T15:44:27;2.10;94.40
30069;DHT22;16894;49.456;10.644;2023-02-26T15:46:58;1.90;94.20
30069;DHT22;16894;49.456;10.644;2023-02-26T15:49:26;1.90;94.40
30069;DHT22;16894;49.456;10.644;2023-02-26T15:51:54;1.80;94.90
30069;DHT22;16894;49.456;10.644;2023-02-26T15:54:21;1.70;94.40
30069;DHT22;16894;49.456;10.644;2023-02-26T15:56:50;1.70;94.10
30069;DHT22;16894;49.456;10.644;2023-02-26T15:59:20;1.70;94.40
30069;DHT22;16894;49.456;10.644;2023-02-26T16:01:47;1.70;95.00
30069;DHT22;16894;49.456;10.644;2023-02-26T16:04:17;1.70;94.60
30069;DHT22;16894;49.456;10.644;2023-02-26T16:06:44;1.60;95.10
30069;DHT22;16894;49.456;10.644;2023-02-26T16:09:19;1.60;95.60
30069;DHT22;16894;49.456;10.644;2023-02-26T16:11:44;1.50;95.10
30069;DHT22;16894;49.456;10.644;2023-02-26T16:14:14;1.50;95.10
30069;DHT22;16894;49.456;10.644;2023-02-26T16:16:44;1.50;95.90
30069;DHT22;16894;49.456;10.644;2023-02-26T16:19:20;1.40;95.70
30069;DHT22;16894;49.456;10.644;2023-02-26T16:21:49;1.30;95.30
30069;DHT22;16894;49.456;10.644;2023-02-26T16:24:17;1.40;95.30
30069;DHT22;16894;49.456;10.644;2023-02-26T16:26:45;1.40;95.10
30069;DHT22;16894;49.456;10.644;2023-02-26T16:29:14;1.30;94.00
30069;DHT22;16894;49.456;10.644;2023-02-26T16:31:41;1.20;95.30
30069;DHT22;16894;49.456;10.644;2023-02-26T16:34:28;1.30;95.60
30069;DHT22;16894;49.456;10.644;2023-02-26T16:36:55;1.20;95.70
30069;DHT22;16894;49.456;10.644;2023-02-26T16:39:22;1.20;95.80
30069;DHT22;16894;49.456;10.644;2023-02-26T16:41:56;1.20;96.70
30069;DHT22;16894;49.456;10.644;2023-02-26T16:44:34;1.20;96.50
30069;DHT22;16894;49.456;10.644;2023-02-26T16:47:00;1.10;97.60
30069;DHT22;16894;49.456;10.644;2023-02-26T16:49:28;1.10;97.00
30069;DHT22;16894;49.456;10.644;2023-02-26T16:51:55;1.10;96.70
30069;DHT22;16894;49.456;10.644;2023-02-26T16:57:34;0.80;97.20
30069;DHT22;16894;49.456;10.644;2023-02-26T16:59:40;0.70;97.30
30069;DHT22;16894;49.456;10.644;2023-02-26T17:02:11;0.50;97.10
30069;DHT22;16894;49.456;10.644;2023-02-26T17:04:38;0.50;97.70
30069;DHT22;16894;49.456;10.644;2023-02-26T17:07:04;0.50;98.20
30069;DHT22;16894;49.456;10.644;2023-02-26T17:12:02;0.30;99.10
30069;DHT22;16894;49.456;10.644;2023-02-26T17:14:28;0.30;99.10
30069;DHT22;16894;49.456;10.644;2023-02-26T17:16:55;0.20;99.60
30069;DHT22;16894;49.456;10.644;2023-02-26T17:19:21;0.20;99.80
30069;DHT22;16894;49.456;10.644;2023-02-26T17:21:47;0.20;99.60
30069;DHT22;16894;49.456;10.644;2023-02-26T17:24:14;0.20;99.90
30069;DHT22;16894;49.456;10.644;2023-02-26T17:26:41;0.10;99.50
30069;DHT22;16894;49.456;10.644;2023-02-26T17:29:07;0.10;99.90
30069;DHT22;16894;49.456;10.644;2023-02-26T17:31:34;0.10;99.90
30069;DHT22;16894;49.456;10.644;2023-02-26T17:33:59;0.00;99.60
30069;DHT22;16894;49.456;10.644;2023-02-26T17:36:25;0.00;99.90
30069;DHT22;16894;49.456;10.644;2023-02-26T17:38:50;-0.10;99.90
30069;DHT22;16894;49.456;10.644;2023-02-26T17:41:16;-0.10;99.90
30069;DHT22;16894;49.456;10.644;2023-02-26T17:43:42;-0.10;99.90
30069;DHT22;16894;49.456;10.644;2023-02-26T17:46:11;-0.20;99.90
30069;DHT22;16894;49.456;10.644;2023-02-26T17:48:37;-0.10;99.90